Time;durP1;ratioP1;P1;durP2;ratioP2;P2;SDS_P1;SDS_P2;PMS_P1;PMS_P2;Temp;Humidity;BMP_temperature;BMP_pressure;BME280_temperature;BME280_humidity;BME280_pressure;Samples;Min_cycle;Max_cycle;Signal;HPM_P1;HPM_P2
2021/05/12 00:02:00;;;;;;;12.00;4.88;;;;;;;19.24;45.05;98200.30;262257;1104;114840;-65
2021/05/12 00:07:04;;;;;;;10.08;4.48;;;;;;;19.16;44.99;98203.02;262859;1099;114817;-65
2021/05/12 00:12:09;;;;;;;7.70;5.10;;;;;;;19.09;44.94;98200.16;262740;1104;114973;-66
2021/05/12 00:17:18;;;;;;;13.33;5.18;;;;;;;19.00;45.24;98201.16;262559;1099;114070;-65
2021/05/12 00:27:37;;;;;;;13.55;5.18;;;;;;;18.81;45.68;98188.84;262823;1100;114424;-66
2021/05/12 00:32:44;;;;;;;12.57;5.60;;;;;;;18.71;46.14;98192.69;262787;1103;114495;-64
2021/05/12 00:37:49;;;;;;;11.47;4.90;;;;;;;18.59;46.01;98192.19;262972;1100;114797;-64
2021/05/12 00:42:53;;;;;;;9.48;4.43;;;;;;;18.51;46.31;98200.25;262413;1104;115237;-62
2021/05/12 00:47:59;;;;;;;8.47;4.70;;;;;;;18.40;46.40;98196.86;262699;1099;114915;-65
2021/05/12 00:53:05;;;;;;;10.47;4.87;;;;;;;18.31;46.50;98195.18;262925;1103;114819;-67
2021/05/12 00:58:09;;;;;;;11.10;5.20;;;;;;;18.23;46.82;98199.69;262877;1099;114488;-65
2021/05/12 01:03:14;;;;;;;14.90;4.88;;;;;;;18.12;46.75;98198.15;261527;1101;115240;-65
2021/05/12 01:08:20;;;;;;;10.40;4.88;;;;;;;18.02;47.16;98192.89;262040;1099;114625;-64
2021/05/12 01:13:25;;;;;;;9.70;5.17;;;;;;;17.92;47.53;98192.19;262004;1104;114962;-66
2021/05/12 01:18:29;;;;;;;11.40;4.73;;;;;;;17.83;47.69;98187.77;262881;1099;114675;-64
2021/05/12 01:23:37;;;;;;;11.00;4.45;;;;;;;17.73;47.59;98179.81;263205;1104;115195;-62
2021/05/12 01:28:44;;;;;;;15.63;5.05;;;;;;;17.63;48.10;98181.75;262891;1099;115359;-64
2021/05/12 01:33:51;;;;;;;13.05;5.18;;;;;;;17.56;48.02;98186.09;262933;1103;114887;-65
2021/05/12 01:38:57;;;;;;;13.73;5.10;;;;;;;17.48;48.48;98181.52;262518;1100;115651;-64
2021/05/12 01:44:09;;;;;;;14.07;5.13;;;;;;;17.38;48.48;98186.17;262672;1104;115416;-65
2021/05/12 01:49:14;;;;;;;20.23;5.90;;;;;;;17.29;48.66;98170.98;262874;1099;114977;-67
2021/05/12 01:54:18;;;;;;;;;;;;;;;17.18;49.04;98178.31;263162;1101;116442;-63
2021/05/12 01:59:23;;;;;;;14.30;5.73;;;;;;;17.07;49.31;98175.89;262225;1100;103248;-64
2021/05/12 02:04:27;;;;;;;11.58;5.83;;;;;;;16.97;49.16;98167.09;261884;1104;114865;-66
2021/05/12 02:09:42;;;;;;;8.57;5.13;;;;;;;16.89;49.57;98177.79;261447;1104;114828;-65
2021/05/12 02:14:47;;;;;;;18.67;5.40;;;;;;;16.82;49.52;98176.73;262144;1102;115080;-64
2021/05/12 02:19:51;;;;;;;15.10;5.70;;;;;;;16.74;49.86;98172.08;263156;1099;114635;-65
2021/05/12 02:24:55;;;;;;;15.05;5.78;;;;;;;16.67;49.76;98168.33;263083;1104;114907;-66
2021/05/12 02:30:02;;;;;;;14.05;6.00;;;;;;;16.59;50.03;98163.73;262475;1099;115230;-66
2021/05/12 02:35:10;;;;;;;16.10;6.13;;;;;;;16.51;50.31;98163.68;262260;1104;114704;-67
2021/05/12 02:40:17;;;;;;;19.77;6.47;;;;;;;16.41;50.10;98162.91;262957;1098;114503;-64
2021/05/12 02:45:23;;;;;;;10.63;5.70;;;;;;;16.29;50.27;98144.32;262517;1104;114657;-67
2021/05/12 02:50:33;;;;;;;13.88;5.65;;;;;;;16.22;50.58;98153.16;262419;1099;115033;-65
2021/05/12 02:55:39;;;;;;;16.17;6.20;;;;;;;16.12;50.72;98147.84;262920;1104;114662;-66
2021/05/12 03:00:44;;;;;;;19.40;6.53;;;;;;;16.02;50.80;98144.39;261858;1104;115112;-65
2021/05/12 03:05:48;;;;;;;15.08;5.75;;;;;;;15.93;51.43;98150.66;261261;1101;115666;-68
2021/05/12 03:11:00;;;;;;;18.97;6.23;;;;;;;15.84;50.98;98152.41;261393;1099;115930;-67
2021/05/12 03:16:18;;;;;;;20.15;6.13;;;;;;;15.74;51.72;98147.10;261031;1104;115689;-67
2021/05/12 03:21:32;;;;;;;16.43;6.53;;;;;;;15.69;51.56;98149.41;261053;1101;115114;-69
2021/05/12 03:26:41;;;;;;;;;;;;;;;15.63;51.69;98149.96;261143;1104;115532;-66
2021/05/12 03:31:49;;;;;;;14.33;5.43;;;;;;;15.55;52.26;98147.16;260954;1103;103478;-66
2021/05/12 03:37:02;;;;;;;16.10;6.10;;;;;;;15.50;52.60;98150.30;261203;1104;114522;-67
2021/05/12 03:42:11;;;;;;;12.38;6.03;;;;;;;15.45;52.66;98154.41;260972;1100;114558;-67
2021/05/12 03:47:17;;;;;;;13.87;6.30;;;;;;;15.41;52.86;98151.17;260985;1102;115099;-66
2021/05/12 03:52:30;;;;;;;19.77;6.80;;;;;;;15.42;52.72;98152.02;261234;1104;114584;-66
2021/05/12 03:57:45;;;;;;;12.47;5.97;;;;;;;15.44;53.16;98147.36;261497;1104;114727;-66
2021/05/12 04:03:15;;;;;;;8.63;5.40;;;;;;;15.46;53.33;98148.91;261361;1100;115761;-67
2021/05/12 04:08:25;;;;;;;11.10;5.78;;;;;;;15.54;53.13;98148.16;261185;1104;114541;-67
2021/05/12 04:13:31;;;;;;;11.17;5.50;;;;;;;15.61;52.90;98144.73;261327;1100;115386;-67
2021/05/12 04:18:44;;;;;;;12.23;5.40;;;;;;;15.69;52.81;98141.36;261392;1104;115167;-66
2021/05/12 04:23:54;;;;;;;14.58;5.23;;;;;;;15.75;52.60;98137.21;261297;1100;114439;-65
2021/05/12 04:29:05;;;;;;;9.83;5.37;;;;;;;15.81;52.77;98139.30;261257;1101;114649;-66
2021/05/12 04:34:12;;;;;;;11.45;5.43;;;;;;;15.87;52.87;98143.23;261318;1102;114559;-67
2021/05/12 04:39:31;;;;;;;12.53;5.20;;;;;;;15.93;53.04;98131.87;261452;1099;115608;-67
2021/05/12 04:44:40;;;;;;;11.07;5.70;;;;;;;15.99;52.93;98142.00;261263;1099;114682;-68
2021/05/12 04:49:53;;;;;;;11.97;5.70;;;;;;;16.03;52.71;98138.02;261247;1100;114478;-68
2021/05/12 04:55:06;;;;;;;9.17;5.40;;;;;;;16.08;52.64;98136.58;261259;1104;115061;-67
2021/05/12 05:00:19;;;;;;;15.00;5.43;;;;;;;16.16;52.88;98133.12;261419;1104;114387;-68
2021/05/12 05:05:28;;;;;;;12.97;6.33;;;;;;;16.22;52.97;98128.98;261521;1104;115352;-67
2021/05/12 05:10:32;;;;;;;13.57;5.43;;;;;;;16.30;52.75;98123.69;263177;1102;115531;-67
2021/05/12 05:15:36;;;;;;;13.13;5.30;;;;;;;16.39;53.15;98124.61;263140;1100;114746;-69
2021/05/12 05:20:39;;;;;;;14.93;5.13;;;;;;;16.50;52.77;98127.05;263174;1101;114883;-69
2021/05/12 05:25:43;;;;;;;13.23;5.63;;;;;;;16.62;52.83;98131.19;263091;1099;114945;-70
2021/05/12 05:30:50;;;;;;;10.93;5.30;;;;;;;16.79;52.73;98124.97;263155;1102;114340;-67
2021/05/12 05:36:12;;;;;;;8.47;4.50;;;;;;;16.99;52.70;98119.41;263131;1100;114631;-67
2021/05/12 05:41:34;;;;;;;12.37;5.60;;;;;;;17.16;52.52;98120.34;263095;1101;115551;-67
2021/05/12 05:47:00;;;;;;;7.60;4.67;;;;;;;17.31;52.27;98118.73;263165;1100;114667;-69
2021/05/12 05:52:27;;;;;;;7.68;4.65;;;;;;;17.43;52.29;98111.23;263158;1102;114897;-67
2021/05/12 05:57:57;;;;;;;11.85;4.75;;;;;;;17.55;51.88;98120.69;262942;1104;114778;-67
2021/05/12 06:03:20;;;;;;;9.98;4.40;;;;;;;17.66;51.76;98112.34;263195;1099;115195;-68
2021/05/12 06:08:42;;;;;;;14.27;4.67;;;;;;;17.78;51.79;98114.76;262661;1103;117124;-68
2021/05/12 06:14:12;;;;;;;11.73;4.40;;;;;;;17.89;51.48;98112.59;262898;1098;115111;-68
2021/05/12 06:19:35;;;;;;;9.65;4.68;;;;;;;17.95;51.36;98109.25;263104;1104;114676;-67
2021/05/12 06:24:57;;;;;;;9.60;4.60;;;;;;;18.05;51.21;98116.34;263110;1099;115661;-69
2021/05/12 06:30:19;;;;;;;15.17;4.43;;;;;;;18.13;51.02;98114.48;263120;1102;114639;-69
2021/05/12 06:35:41;;;;;;;7.60;4.60;;;;;;;18.25;51.30;98116.89;263030;1100;114523;-68
2021/05/12 06:41:04;;;;;;;12.17;4.77;;;;;;;18.36;51.12;98108.47;262542;1102;114591;-68
2021/05/12 06:46:08;;;;;;;21.00;4.83;;;;;;;18.45;50.86;98107.47;262740;1099;115187;-67
2021/05/12 06:51:13;;;;;;;7.30;4.55;;;;;;;18.56;51.17;98104.44;263174;1102;114609;-68
2021/05/12 06:56:16;;;;;;;12.27;4.73;;;;;;;18.67;50.91;98097.86;263175;1099;114898;-68
2021/05/12 07:01:20;;;;;;;14.87;4.83;;;;;;;18.79;50.92;98099.23;263189;1104;115055;-69
2021/05/12 07:06:24;;;;;;;15.00;4.68;;;;;;;18.88;50.76;98090.09;263104;1098;115322;-68
2021/05/12 07:11:29;;;;;;;8.40;4.85;;;;;;;18.99;50.52;98082.70;263132;1102;114654;-69
2021/05/12 07:16:32;;;;;;;11.68;4.90;;;;;;;19.09;50.87;98096.83;263186;1100;114236;-68
2021/05/12 07:21:36;;;;;;;11.88;4.63;;;;;;;19.21;50.70;98081.10;263152;1103;115852;-68
2021/05/12 07:26:40;;;;;;;14.80;4.60;;;;;;;19.29;50.15;98078.36;263151;1099;114828;-68
2021/05/12 07:31:44;;;;;;;8.65;4.70;;;;;;;19.41;50.48;98074.28;263128;1101;115992;-68
2021/05/12 07:36:50;;;;;;;8.35;4.38;;;;;;;19.53;50.11;98072.89;263179;1099;114962;-68
2021/05/12 07:41:57;;;;;;;9.13;4.63;;;;;;;19.65;50.27;98064.42;263217;1101;115049;-69
2021/05/12 07:47:01;;;;;;;10.00;4.40;;;;;;;19.73;49.98;98053.57;263158;1099;115858;-67
2021/05/12 07:52:13;;;;;;;7.20;3.90;;;;;;;19.83;49.88;98052.32;263241;1103;115069;-69
2021/05/12 07:57:17;;;;;;;7.20;3.83;;;;;;;19.92;49.81;98047.72;263103;1098;114442;-68
2021/05/12 08:02:21;;;;;;;11.33;3.90;;;;;;;20.03;49.98;98047.30;263187;1102;114132;-68
2021/05/12 08:07:25;;;;;;;9.60;3.85;;;;;;;20.16;49.63;98041.30;263139;1098;115067;-68
2021/05/12 08:12:29;;;;;;;7.75;3.60;;;;;;;20.27;49.61;98038.16;263134;1103;114532;-68
2021/05/12 08:17:33;;;;;;;14.33;4.13;;;;;;;20.41;49.40;98041.09;263140;1099;114200;-68
2021/05/12 08:22:37;;;;;;;8.98;3.80;;;;;;;20.54;49.31;98034.08;263105;1102;114991;-68
2021/05/12 08:27:42;;;;;;;10.13;3.78;;;;;;;20.68;49.11;98029.72;263173;1099;114398;-69
2021/05/12 08:32:46;;;;;;;7.33;3.80;;;;;;;20.80;48.91;98027.42;263140;1103;115287;-69
2021/05/12 08:37:51;;;;;;;7.18;3.93;;;;;;;20.92;48.89;98019.67;263210;1099;115152;-68
2021/05/12 08:42:55;;;;;;;12.47;4.07;;;;;;;21.07;48.87;98014.28;263164;1102;115126;-69
2021/05/12 08:48:04;;;;;;;7.55;3.50;;;;;;;21.20;48.75;98012.59;263128;1099;115198;-68
2021/05/12 08:53:09;;;;;;;5.93;3.18;;;;;;;21.33;48.48;97997.53;263229;1104;114622;-68
2021/05/12 08:58:13;;;;;;;6.33;3.23;;;;;;;21.46;48.34;97995.86;262302;1098;114640;-69
2021/05/12 09:03:17;;;;;;;6.48;3.40;;;;;;;21.59;48.23;97992.47;263185;1103;114562;-68
2021/05/12 09:08:20;;;;;;;5.88;2.93;;;;;;;21.75;47.68;97995.99;263107;1099;114657;-69
2021/05/12 09:13:38;;;;;;;7.28;3.08;;;;;;;21.88;47.50;97986.13;263150;1104;114863;-69
2021/05/12 09:18:42;;;;;;;10.20;2.90;;;;;;;22.05;47.42;97985.88;263059;1098;114898;-68
2021/05/12 09:23:45;;;;;;;11.08;3.58;;;;;;;22.20;47.33;97973.11;263172;1104;114953;-69
2021/05/12 09:28:53;;;;;;;11.13;4.38;;;;;;;22.34;47.07;97968.63;263191;1098;115207;-68
2021/05/12 09:34:00;;;;;;;9.97;3.17;;;;;;;22.47;46.77;97974.16;263114;1102;114571;-69
2021/05/12 09:39:14;;;;;;;6.23;4.37;;;;;;;22.61;46.82;97973.21;263129;1099;114521;-69
2021/05/12 09:44:28;;;;;;;15.15;9.00;;;;;;;22.76;46.71;97964.98;263100;1100;115169;-69
2021/05/12 09:49:32;;;;;;;14.05;8.78;;;;;;;22.83;46.50;97957.72;263135;1099;114629;-70
2021/05/12 09:54:36;;;;;;;24.90;10.90;;;;;;;22.90;46.04;97945.02;263078;1104;116014;-68
2021/05/12 09:59:40;;;;;;;10.85;6.23;;;;;;;22.99;46.13;97943.00;263071;1098;115095;-68
2021/05/12 10:04:45;;;;;;;20.85;11.65;;;;;;;23.15;45.75;97939.11;263131;1104;114516;-68
2021/05/12 10:09:53;;;;;;;25.08;12.13;;;;;;;23.36;45.63;97941.69;263055;1099;115388;-68
2021/05/12 10:14:59;;;;;;;27.77;12.87;;;;;;;23.59;45.44;97944.06;263106;1104;114855;-68
2021/05/12 10:20:03;;;;;;;25.87;14.07;;;;;;;23.87;45.23;97931.39;263045;1099;116362;-68
2021/05/12 10:25:08;;;;;;;68.58;47.68;;;;;;;24.15;44.95;97932.06;263119;1101;116586;-68
2021/05/12 10:30:13;;;;;;;26.87;16.97;;;;;;;24.41;44.53;97920.34;263081;1098;114815;-69
2021/05/12 10:35:19;;;;;;;25.18;16.88;;;;;;;24.67;44.25;97916.75;263096;1104;115838;-67
2021/05/12 10:40:31;;;;;;;13.50;7.53;;;;;;;24.92;44.05;97908.70;263067;1098;115847;-69
2021/05/12 10:51:01;;;;;;;28.30;20.47;;;;;;;25.36;43.11;97903.53;262984;1099;114766;-69
2021/05/12 10:56:07;;;;;;;13.20;10.97;;;;;;;25.58;42.62;97901.33;263038;1104;115240;-68
2021/05/12 11:01:11;;;;;;;18.48;12.90;;;;;;;25.77;42.32;97892.16;262676;1099;115019;-68
2021/05/12 11:06:20;;;;;;;33.67;27.93;;;;;;;25.98;41.62;97890.98;262227;1104;115338;-69
2021/05/12 11:11:25;;;;;;;26.57;16.47;;;;;;;26.19;41.21;97887.05;263100;1099;116012;-68
2021/05/12 11:16:31;;;;;;;33.33;26.80;;;;;;;26.36;40.78;97866.31;262676;1100;115040;-68
2021/05/12 11:21:38;;;;;;;11.97;7.13;;;;;;;26.52;40.69;97864.08;261162;1104;114498;-68
2021/05/12 11:26:52;;;;;;;13.15;4.15;;;;;;;26.70;40.66;97865.97;262463;1104;115045;-68
2021/05/12 11:32:05;;;;;;;17.13;9.67;;;;;;;26.88;40.22;97855.06;262400;1099;115127;-68
2021/05/12 11:37:23;;;;;;;20.23;10.90;;;;;;;27.09;40.42;97851.84;262738;1103;114631;-67
2021/05/12 11:42:33;;;;;;;14.43;5.83;;;;;;;27.29;39.48;97848.05;262839;1100;115101;-68
2021/05/12 11:47:40;;;;;;;6.40;3.07;;;;;;;27.42;39.56;97836.92;261891;1100;114686;-67
2021/05/12 11:52:46;;;;;;;8.83;2.87;;;;;;;27.61;39.13;97832.20;261799;1099;114503;-67
2021/05/12 11:57:52;;;;;;;16.23;14.53;;;;;;;27.77;38.97;97820.63;262746;1104;114477;-67
2021/05/12 12:03:10;;;;;;;17.67;12.00;;;;;;;27.90;38.86;97818.75;261268;1104;115386;-67
2021/05/12 12:08:19;;;;;;;82.98;62.88;;;;;;;28.00;38.37;97816.27;263162;1102;115465;-68
2021/05/12 12:13:23;;;;;;;50.37;34.53;;;;;;;28.03;38.48;97804.85;262765;1100;115126;-67
2021/05/12 12:18:32;;;;;;;12.63;7.90;;;;;;;28.05;38.40;97802.69;262741;1104;115276;-68
2021/05/12 12:23:39;;;;;;;9.07;4.90;;;;;;;28.08;38.13;97788.54;262495;1100;115183;-68
2021/05/12 12:29:07;;;;;;;10.30;3.70;;;;;;;27.79;37.78;97793.89;263160;1104;114885;-68
2021/05/12 12:34:20;;;;;;;7.48;3.53;;;;;;;27.85;38.14;97789.36;262805;1099;114950;-68
2021/05/12 12:44:54;;;;;;;9.43;3.35;;;;;;;28.15;38.08;97775.56;263149;1099;114819;-67
2021/05/12 12:50:02;;;;;;;8.37;3.17;;;;;;;28.22;37.90;97773.53;262506;1104;114682;-68
2021/05/12 12:55:13;;;;;;;13.30;3.30;;;;;;;28.33;37.58;97769.14;262930;1101;114930;-68
2021/05/12 13:00:17;;;;;;;7.03;3.40;;;;;;;28.46;37.68;97763.41;263131;1101;115275;-68
2021/05/12 13:05:22;;;;;;;11.23;3.40;;;;;;;28.56;37.56;97751.02;262511;1098;114790;-68
2021/05/12 13:10:36;;;;;;;6.13;3.20;;;;;;;28.60;37.37;97749.45;263167;1100;114858;-68
2021/05/12 13:15:40;;;;;;;9.35;2.53;;;;;;;28.58;37.04;97751.63;262675;1099;115522;-68
2021/05/12 13:20:43;;;;;;;6.95;3.48;;;;;;;28.71;37.05;97743.13;263152;1102;116017;-68
2021/05/12 13:25:53;;;;;;;13.48;2.98;;;;;;;28.82;36.79;97736.77;263132;1099;114337;-68
2021/05/12 13:30:57;;;;;;;9.33;3.13;;;;;;;28.79;36.44;97739.16;262909;1102;115006;-69
2021/05/12 13:36:02;;;;;;;9.05;2.75;;;;;;;28.84;36.20;97733.77;263129;1098;115227;-69
2021/05/12 13:41:05;;;;;;;;;;;;;;;28.91;35.72;97743.52;263103;1102;115302;-69
2021/05/12 13:46:09;;;;;;;5.47;2.33;;;;;;;28.86;35.62;97732.45;263005;1100;101559;-68
2021/05/12 13:51:13;;;;;;;9.90;2.60;;;;;;;28.64;35.18;97729.58;262698;1104;114716;-68
2021/05/12 14:01:53;;;;;;;7.90;2.20;;;;;;;28.77;35.21;97712.03;263266;1102;101726;-68
2021/05/12 14:06:56;;;;;;;4.30;2.20;;;;;;;29.15;35.12;97714.13;262886;1099;114493;-69
2021/05/12 14:12:06;;;;;;;6.10;1.80;;;;;;;29.57;34.74;97710.98;263269;1102;114816;-69
2021/05/12 14:17:21;;;;;;;8.23;2.27;;;;;;;29.78;34.02;97709.41;263127;1098;114632;-68
2021/05/12 14:22:26;;;;;;;13.63;2.03;;;;;;;29.76;34.12;97708.02;263126;1101;115270;-68
2021/05/12 14:27:31;;;;;;;11.03;2.00;;;;;;;29.66;33.43;97703.20;263123;1099;115064;-68
2021/05/12 14:32:34;;;;;;;8.37;2.30;;;;;;;29.49;33.18;97696.88;263111;1102;114846;-68
2021/05/12 14:37:38;;;;;;;10.18;3.83;;;;;;;29.30;33.39;97699.84;263172;1098;114475;-68
2021/05/12 14:42:42;;;;;;;51.27;40.50;;;;;;;29.03;32.85;97696.91;263039;1102;115421;-68
2021/05/12 14:47:48;;;;;;;;;;;;;;;28.73;33.10;97691.67;263083;1099;115094;-68
2021/05/12 14:52:56;;;;;;;12.83;3.73;;;;;;;28.38;33.16;97691.78;263182;1102;101421;-69
2021/05/12 15:03:30;;;;;;;17.40;8.30;;;;;;;27.66;33.40;97673.80;261664;1102;114877;-68
2021/05/12 15:08:37;;;;;;;14.58;5.48;;;;;;;27.39;33.36;97667.97;261339;1100;115376;-64
2021/05/12 15:13:51;;;;;;;21.73;16.20;;;;;;;27.04;33.68;97659.71;261277;1104;115624;-66
2021/05/12 15:19:02;;;;;;;14.60;9.80;;;;;;;26.72;33.53;97662.69;261162;1100;114780;-67
2021/05/12 15:24:15;;;;;;;7.37;2.60;;;;;;;26.39;34.05;97666.70;261021;1104;115359;-66
2021/05/12 15:29:24;;;;;;;6.90;3.37;;;;;;;26.22;33.93;97667.55;260915;1104;116142;-66
2021/05/12 15:34:37;;;;;;;3.90;2.23;;;;;;;26.07;34.13;97657.87;260942;1101;114534;-66
2021/05/12 15:39:50;;;;;;;57.73;43.00;;;;;;;25.89;33.89;97647.81;260868;1098;117916;-66
2021/05/12 15:45:00;;;;;;;51.40;35.80;;;;;;;25.84;34.20;97649.54;260936;1099;116113;-66
2021/05/12 15:50:17;;;;;;;29.67;20.13;;;;;;;25.86;34.27;97661.06;261004;1104;114902;-66
2021/05/12 15:55:57;;;;;;;14.27;9.47;;;;;;;25.87;34.17;97651.81;261325;1099;114842;-65
2021/05/12 16:01:24;;;;;;;14.30;6.57;;;;;;;26.21;33.97;97655.80;261106;1103;115235;-67
2021/05/12 16:06:31;;;;;;;17.67;11.13;;;;;;;26.42;33.84;97646.30;261322;1100;115138;-66
2021/05/12 16:11:58;;;;;;;25.40;17.35;;;;;;;26.45;33.67;97645.01;261424;1104;116322;-66
2021/05/12 16:17:08;;;;;;;13.30;2.47;;;;;;;26.53;33.48;97640.10;261249;1102;114633;-67
2021/05/12 16:22:24;;;;;;;11.77;2.60;;;;;;;26.36;33.08;97648.06;261338;1102;116830;-68
2021/05/12 16:27:33;;;;;;;29.00;20.93;;;;;;;26.16;33.14;97631.96;260962;1098;116430;-68
2021/05/12 16:32:42;;;;;;;11.20;8.70;;;;;;;25.98;33.12;97629.23;261170;1104;117077;-69
2021/05/12 16:37:54;;;;;;;12.90;9.30;;;;;;;25.80;33.24;97630.08;261276;1101;114521;-69
2021/05/12 16:43:10;;;;;;;8.65;6.10;;;;;;;25.65;33.26;97637.78;261256;1104;116050;-69
2021/05/12 16:48:19;;;;;;;10.95;8.15;;;;;;;25.49;33.36;97641.92;260875;1101;114772;-64
2021/05/12 16:53:38;;;;;;;5.73;2.20;;;;;;;25.38;33.35;97645.39;261130;1104;114678;-66
2021/05/12 16:58:46;;;;;;;9.47;3.67;;;;;;;25.28;33.46;97634.17;261357;1099;115016;-67
2021/05/12 17:03:53;;;;;;;12.37;2.30;;;;;;;25.17;33.56;97638.43;261310;1099;114949;-67
2021/05/12 17:08:58;;;;;;;20.10;9.33;;;;;;;25.08;33.61;97640.58;263052;1100;115243;-67
2021/05/12 17:14:02;;;;;;;85.40;66.10;;;;;;;25.00;33.85;97635.43;262216;1104;114972;-67
2021/05/12 17:19:12;;;;;;;45.60;29.50;;;;;;;24.91;34.11;97631.30;262004;1100;115768;-67
2021/05/12 17:24:26;;;;;;;32.97;23.30;;;;;;;24.84;34.27;97635.97;261083;1104;115538;-66
2021/05/12 17:29:36;;;;;;;30.47;21.67;;;;;;;24.73;34.27;97634.80;260942;1098;115387;-68
2021/05/12 17:34:46;;;;;;;28.33;22.27;;;;;;;24.62;34.49;97627.31;261062;1104;115229;-68
2021/05/12 17:39:57;;;;;;;24.43;19.00;;;;;;;24.53;34.50;97634.92;261107;1099;115483;-67
2021/05/12 17:45:40;;;;;;;13.43;9.13;;;;;;;24.41;34.64;97633.94;261405;1103;115503;-67
2021/05/12 17:50:57;;;;;;;13.53;5.23;;;;;;;24.28;34.83;97637.52;261039;1100;114631;-67
2021/05/12 17:56:29;;;;;;;8.07;3.60;;;;;;;24.18;35.02;97629.00;261091;1100;115250;-63
2021/05/12 18:01:53;;;;;;;7.60;2.73;;;;;;;24.10;34.98;97637.41;261274;1099;115244;-65
2021/05/12 18:07:03;;;;;;;8.97;2.60;;;;;;;24.00;35.39;97646.02;262439;1104;115818;-66
2021/05/12 18:17:30;;;;;;;7.10;2.23;;;;;;;23.87;35.30;97646.06;262976;1104;114884;-64
2021/05/12 18:22:35;;;;;;;6.05;1.85;;;;;;;23.79;35.35;97647.15;263059;1099;115671;-63
2021/05/12 18:27:40;;;;;;;8.63;3.07;;;;;;;23.73;35.43;97650.71;263097;1104;115002;-65
2021/05/12 18:32:44;;;;;;;26.57;18.03;;;;;;;23.64;35.89;97650.09;262954;1100;115127;-66
2021/05/12 18:37:57;;;;;;;28.63;19.48;;;;;;;23.57;36.06;97655.53;262958;1104;116081;-63
2021/05/12 18:43:03;;;;;;;20.13;11.03;;;;;;;23.52;36.19;97666.19;263027;1100;114783;-65
2021/05/12 18:48:16;;;;;;;18.93;8.57;;;;;;;23.48;36.13;97675.81;261396;1104;115848;-67
2021/05/12 18:53:22;;;;;;;49.10;37.38;;;;;;;23.40;36.30;97675.17;260900;1104;115963;-65
2021/05/12 18:58:33;;;;;;;41.57;26.93;;;;;;;23.31;36.44;97683.55;261228;1104;114701;-63
2021/05/12 19:03:38;;;;;;;;;;;;;;;23.25;36.50;97675.41;261487;1104;115156;-66
2021/05/12 19:14:07;;;;;;;9.50;2.80;;;;;;;23.05;36.83;97699.83;261440;1100;115278;-68
2021/05/12 19:24:53;;;;;;;6.90;2.75;;;;;;;22.82;37.24;97701.00;262565;1100;115309;-64
2021/05/12 19:40:49;;;;;;;10.28;3.10;;;;;;;22.52;37.66;97700.55;262720;1104;114708;-67
2021/05/12 19:45:59;;;;;;;9.17;3.27;;;;;;;22.48;37.81;97714.69;263028;1099;114392;-66
2021/05/12 19:51:04;;;;;;;8.17;3.03;;;;;;;22.40;37.83;97710.30;262453;1104;114792;-67
2021/05/12 20:01:18;;;;;;;12.80;3.70;;;;;;;22.22;38.02;97704.61;263093;1104;114769;-67
2021/05/12 20:11:45;;;;;;;10.73;3.20;;;;;;;22.03;38.34;97711.56;262895;1099;114485;-65
2021/05/12 20:16:51;;;;;;;9.87;3.53;;;;;;;21.91;38.70;97712.14;261118;1104;114843;-67
2021/05/12 20:21:56;;;;;;;10.17;3.80;;;;;;;21.81;39.35;97703.53;261985;1099;114914;-64
2021/05/12 20:27:02;;;;;;;11.10;3.87;;;;;;;21.63;39.19;97717.56;262249;1104;114722;-63
2021/05/12 20:32:16;;;;;;;16.50;3.85;;;;;;;21.59;39.53;97731.70;262659;1104;115331;-65
2021/05/12 20:37:22;;;;;;;10.55;4.00;;;;;;;21.55;40.02;97730.44;262473;1104;114726;-64
2021/05/12 20:42:27;;;;;;;10.67;4.07;;;;;;;21.52;39.88;97733.53;262240;1099;115194;-62
2021/05/12 20:47:34;;;;;;;10.60;3.77;;;;;;;21.48;40.32;97746.63;261673;1104;115563;-65
2021/05/12 20:52:43;;;;;;;16.33;4.43;;;;;;;21.43;40.35;97749.94;261957;1104;114644;-66
2021/05/12 20:57:50;;;;;;;11.90;4.68;;;;;;;21.41;40.68;97733.04;262944;1104;114379;-65
2021/05/12 21:02:59;;;;;;;11.03;4.33;;;;;;;21.41;40.92;97733.04;262613;1098;115119;-66
2021/05/12 21:08:08;;;;;;;12.93;4.70;;;;;;;21.31;40.99;97735.22;261865;1104;114802;-65
2021/05/12 21:13:16;;;;;;;14.53;5.00;;;;;;;21.25;41.08;97728.70;261817;1100;114406;-65
2021/05/12 21:18:25;;;;;;;11.53;5.43;;;;;;;21.17;41.25;97718.03;262992;1104;114515;-64
2021/05/12 21:23:46;;;;;;;15.73;5.03;;;;;;;21.06;41.46;97720.41;262682;1099;114575;-64
2021/05/12 21:28:51;;;;;;;18.47;5.20;;;;;;;20.98;41.78;97724.92;261481;1104;114905;-65
2021/05/12 21:33:56;;;;;;;17.97;4.90;;;;;;;20.94;42.13;97726.34;262492;1104;114517;-66
2021/05/12 21:39:03;;;;;;;18.43;5.33;;;;;;;20.89;42.17;97722.53;262110;1103;114802;-65
2021/05/12 21:44:09;;;;;;;18.93;6.50;;;;;;;20.83;42.30;97721.46;262488;1102;114633;-64
2021/05/12 21:49:13;;;;;;;16.90;5.47;;;;;;;20.71;42.69;97717.58;262064;1100;114886;-63
2021/05/12 21:54:19;;;;;;;10.50;4.83;;;;;;;20.56;42.94;97709.53;262056;1100;114972;-66
2021/05/12 21:59:23;;;;;;;9.53;4.57;;;;;;;20.44;43.09;97706.44;262704;1104;114639;-67
2021/05/12 22:04:29;;;;;;;17.70;6.40;;;;;;;20.35;43.21;97712.17;261553;1104;114182;-66
2021/05/12 22:25:58;;;;;;;10.73;5.93;;;;;;;19.98;45.53;97703.19;262932;1100;114739;-67
2021/05/12 22:31:02;;;;;;;7.85;4.45;;;;;;;19.87;46.66;97699.11;262524;1104;114927;-63
2021/05/12 22:36:07;;;;;;;10.43;4.40;;;;;;;19.77;47.18;97698.55;262461;1099;114579;-66
2021/05/12 22:41:11;;;;;;;;;;;;;;;19.67;47.80;97698.83;261862;1104;114490;-65
2021/05/12 22:46:16;;;;;;;10.40;4.43;;;;;;;19.57;48.30;97690.97;262656;1099;103013;-63
2021/05/12 22:51:23;;;;;;;;;;;;;;;19.49;48.52;97687.50;263055;1104;115339;-65
2021/05/12 22:56:47;;;;;;;7.03;4.47;;;;;;;19.34;49.46;97676.70;262584;1100;101024;-64
2021/05/12 23:01:52;;;;;;;8.03;4.37;;;;;;;19.26;49.33;97679.47;261486;1104;115118;-65
2021/05/12 23:06:57;;;;;;;11.95;5.08;;;;;;;19.17;50.11;97680.59;262299;1104;114589;-65
2021/05/12 23:12:01;;;;;;;;;;;;;;;19.10;50.37;97683.17;262395;1105;114490;-68
2021/05/12 23:17:06;;;;;;;6.00;4.50;;;;;;;19.01;50.64;97671.61;262052;1100;103082;-65
2021/05/12 23:22:10;;;;;;;;;;;;;;;18.95;50.86;97672.33;262548;1104;114848;-65
2021/05/12 23:27:15;;;;;;;9.07;5.47;;;;;;;18.87;51.16;97665.16;261627;1104;102997;-68
2021/05/12 23:32:19;;;;;;;8.85;5.60;;;;;;;18.85;51.55;97656.44;262115;1105;114818;-66
2021/05/12 23:37:23;;;;;;;6.93;4.90;;;;;;;18.80;52.18;97648.05;262499;1100;115350;-66
2021/05/12 23:42:36;;;;;;;9.03;5.20;;;;;;;18.75;51.93;97644.20;262273;1104;114669;-66
2021/05/12 23:47:44;;;;;;;8.90;5.13;;;;;;;18.65;52.32;97645.28;262399;1100;115319;-63
2021/05/12 23:52:49;;;;;;;8.07;5.70;;;;;;;18.55;51.91;97639.30;262398;1105;114884;-62
2021/05/12 23:57:53;;;;;;;10.70;5.60;;;;;;;18.44;51.86;97648.64;263235;1099;114676;-65
